createdAt,value
2023-01-07T00:00:57.209Z,23.3
2023-01-07T00:01:59.748Z,23.2
2023-01-07T00:03:02.480Z,23.4
2023-01-07T00:04:05.327Z,23.3
2023-01-07T00:05:08.578Z,23.3
2023-01-07T00:06:11.122Z,23.3
2023-01-07T00:07:13.730Z,23.4
2023-01-07T00:08:16.018Z,23.3
2023-01-07T00:09:18.521Z,23.4
2023-01-07T00:10:21.157Z,23.4
2023-01-07T00:11:23.378Z,23.3
2023-01-07T00:12:25.416Z,23.4
2023-01-07T00:13:27.940Z,23.4
2023-01-07T00:14:30.465Z,23.5
2023-01-07T00:15:32.968Z,23.4
2023-01-07T00:16:35.511Z,23.5
2023-01-07T00:17:37.460Z,23.4
2023-01-07T00:18:39.838Z,23.4
2023-01-07T00:19:42.068Z,23.4
2023-01-07T00:20:44.011Z,23.5
2023-01-07T00:21:46.280Z,23.4
2023-01-07T00:22:48.951Z,23.5
2023-01-07T00:23:51.186Z,23.4
2023-01-07T00:24:53.692Z,23.4
2023-01-07T00:25:56.321Z,23.4
2023-01-07T00:26:58.820Z,23.6
2023-01-07T00:28:01.053Z,23.4
2023-01-07T00:29:03.580Z,23.5
2023-01-07T00:30:06.100Z,23.6
2023-01-07T00:31:08.645Z,23.3
2023-01-07T00:32:11.484Z,23.4
2023-01-07T00:33:14.007Z,23.4
2023-01-07T00:34:16.688Z,23.4
2023-01-07T00:35:19.307Z,23.4
2023-01-07T00:36:21.814Z,23.4
2023-01-07T00:37:24.317Z,23.5
2023-01-07T00:38:26.918Z,23.4
2023-01-07T00:39:29.455Z,23.4
2023-01-07T00:40:31.975Z,23.5
2023-01-07T00:41:34.614Z,23.4
2023-01-07T00:42:36.862Z,23.6
2023-01-07T00:43:39.388Z,23.6
2023-01-07T00:44:41.912Z,23.7
2023-01-07T00:45:44.421Z,23.7
2023-01-07T00:46:47.021Z,23.6
2023-01-07T00:47:49.638Z,23.7
2023-01-07T00:48:52.127Z,23.6
2023-01-07T00:49:54.811Z,23.6
2023-01-07T00:50:57.324Z,23.6
2023-01-07T00:51:59.599Z,23.6
2023-01-07T00:53:02.188Z,23.6
2023-01-07T00:54:05.049Z,23.6
2023-01-07T00:55:07.583Z,23.6
2023-01-07T00:56:09.809Z,23.6
2023-01-07T00:57:12.537Z,23.7
2023-01-07T00:58:15.109Z,23.6
2023-01-07T00:59:17.672Z,23.6
2023-01-07T01:00:20.171Z,23.6
2023-01-07T01:01:22.615Z,23.7
2023-01-07T01:02:25.798Z,23.4
2023-01-07T01:03:28.653Z,23.8
2023-01-07T01:04:31.264Z,23.8
2023-01-07T01:05:32.969Z,23.6
2023-01-07T01:06:35.253Z,23.8
2023-01-07T01:07:36.993Z,23.6
2023-01-07T01:08:39.493Z,23.7
2023-01-07T01:09:42.296Z,23.7
2023-01-07T01:10:44.529Z,23.6
2023-01-07T01:11:47.039Z,23.6
2023-01-07T01:12:49.396Z,23.7
2023-01-07T01:13:51.910Z,23.7
2023-01-07T01:14:54.418Z,23.7
2023-01-07T01:15:56.685Z,23.7
2023-01-07T01:16:59.550Z,23.6
2023-01-07T01:18:02.052Z,23.6
2023-01-07T01:19:03.995Z,23.7
2023-01-07T01:20:06.508Z,23.9
2023-01-07T01:21:09.155Z,23.7
2023-01-07T01:22:11.660Z,23.7
2023-01-07T01:23:14.149Z,23.6
2023-01-07T01:24:16.671Z,23.6
2023-01-07T01:25:19.574Z,23.7
2023-01-07T01:26:22.072Z,23.8
2023-01-07T01:27:24.575Z,23.8
2023-01-07T01:28:27.199Z,23.7
2023-01-07T01:29:29.706Z,23.8
2023-01-07T01:30:31.961Z,23.8
2023-01-07T01:31:34.577Z,23.8
2023-01-07T01:32:37.429Z,23.8
2023-01-07T01:33:39.981Z,23.9
2023-01-07T01:34:42.514Z,23.8
2023-01-07T01:35:45.041Z,23.7
2023-01-07T01:36:47.139Z,23.9
2023-01-07T01:37:49.638Z,23.9
2023-01-07T01:38:52.188Z,23.8
2023-01-07T01:39:54.549Z,23.8
2023-01-07T01:40:57.456Z,23.8
2023-01-07T01:42:00.714Z,23.9
2023-01-07T01:43:03.215Z,23.7
2023-01-07T01:44:05.840Z,23.7
2023-01-07T01:45:08.378Z,23.8
2023-01-07T01:46:10.876Z,23.8
2023-01-07T01:47:13.384Z,23.8
2023-01-07T01:48:15.618Z,23.8
2023-01-07T01:49:18.134Z,23.9
2023-01-07T01:50:20.654Z,23.9
2023-01-07T01:51:23.150Z,23.9
2023-01-07T01:52:25.772Z,23.9
2023-01-07T01:53:28.268Z,23.9
2023-01-07T01:54:30.774Z,23.9
2023-01-07T01:55:33.288Z,23.8
2023-01-07T01:56:36.222Z,23.9
2023-01-07T01:57:38.759Z,23.8
2023-01-07T01:58:41.256Z,23.9
2023-01-07T01:59:43.861Z,24
2023-01-07T02:00:46.465Z,23.9
2023-01-07T02:01:49.189Z,24.1
2023-01-07T02:02:52.690Z,24
2023-01-07T02:03:55.259Z,24
2023-01-07T02:04:57.776Z,23.8
2023-01-07T02:05:59.994Z,23.8
2023-01-07T02:07:01.923Z,23.8
2023-01-07T02:08:04.566Z,23.7
2023-01-07T02:09:07.090Z,23.8
2023-01-07T02:10:09.357Z,23.9
2023-01-07T02:11:11.875Z,23.8
2023-01-07T02:12:14.486Z,23.7
2023-01-07T02:13:16.734Z,23.8
2023-01-07T02:14:18.673Z,23.9
2023-01-07T02:15:21.021Z,23.8
2023-01-07T02:16:23.605Z,23.8
2023-01-07T02:17:26.467Z,23.8
2023-01-07T02:18:28.739Z,23.9
2023-01-07T02:19:31.233Z,23.9
2023-01-07T02:20:33.735Z,23.9
2023-01-07T02:21:36.243Z,24
2023-01-07T02:22:38.820Z,24
2023-01-07T02:23:41.421Z,23.9
2023-01-07T02:24:43.919Z,23.9
2023-01-07T02:25:45.883Z,23.9
2023-01-07T02:26:48.155Z,23.9
2023-01-07T02:27:50.947Z,23.9
2023-01-07T02:28:53.536Z,23.8
2023-01-07T02:29:55.793Z,23.8
2023-01-07T02:30:58.414Z,23.8
2023-01-07T02:32:00.923Z,23.8
2023-01-07T02:33:03.180Z,23.8
2023-01-07T02:34:05.685Z,23.8
2023-01-07T02:35:08.202Z,23.8
2023-01-07T02:36:10.426Z,23.8
2023-01-07T02:37:12.939Z,23.8
2023-01-07T02:38:15.457Z,23.9
2023-01-07T02:39:17.808Z,23.8
2023-01-07T02:40:20.059Z,23.8
2023-01-07T02:41:22.054Z,23.9
2023-01-07T02:42:24.277Z,23.9
2023-01-07T02:43:26.841Z,23.9
2023-01-07T02:44:29.095Z,23.9
2023-01-07T02:45:31.667Z,23.9
2023-01-07T02:46:34.354Z,24
2023-01-07T02:47:36.865Z,23.8
2023-01-07T02:48:39.390Z,23.9
2023-01-07T02:49:41.924Z,23.9
2023-01-07T02:50:44.456Z,23.9
2023-01-07T02:51:46.976Z,24
2023-01-07T02:52:48.939Z,23.9
2023-01-07T02:53:51.441Z,23.8
2023-01-07T02:54:53.845Z,24
2023-01-07T02:55:56.357Z,23.8
2023-01-07T02:56:58.307Z,23.9
2023-01-07T02:58:00.850Z,23.8
2023-01-07T02:59:03.504Z,23.8
2023-01-07T03:00:05.741Z,23.9
2023-01-07T03:01:08.105Z,23.9
2023-01-07T03:02:11.455Z,24.1
2023-01-07T03:03:13.664Z,23.9
2023-01-07T03:04:16.263Z,23.8
2023-01-07T03:05:18.609Z,23.9
2023-01-07T03:06:20.859Z,24
2023-01-07T03:07:23.356Z,24
2023-01-07T03:08:25.376Z,24
2023-01-07T03:09:27.880Z,23.8
2023-01-07T03:10:30.520Z,24
2023-01-07T03:11:33.016Z,24
2023-01-07T03:12:35.288Z,23.9
2023-01-07T03:13:37.799Z,23.8
2023-01-07T03:14:40.678Z,23.9
2023-01-07T03:15:43.199Z,23.9
2023-01-07T03:16:45.522Z,24
2023-01-07T03:17:48.410Z,23.9
2023-01-07T03:18:50.943Z,24
2023-01-07T03:19:52.923Z,24
2023-01-07T03:20:55.481Z,23.7
2023-01-07T03:21:57.989Z,23.9
2023-01-07T03:23:00.200Z,24
2023-01-07T03:24:02.726Z,23.9
2023-01-07T03:25:05.259Z,23.9
2023-01-07T03:26:07.931Z,23.9
2023-01-07T03:27:09.907Z,23.9
2023-01-07T03:28:12.148Z,23.8
2023-01-07T03:29:14.398Z,23.9
2023-01-07T03:30:17.070Z,24
2023-01-07T03:31:19.387Z,23.9
2023-01-07T03:32:21.833Z,24
2023-01-07T03:33:24.477Z,24
2023-01-07T03:34:26.984Z,24
2023-01-07T03:35:29.521Z,24
2023-01-07T03:36:32.031Z,24.1
2023-01-07T03:37:34.543Z,24
2023-01-07T03:38:36.768Z,24
2023-01-07T03:39:38.723Z,23.9
2023-01-07T03:40:40.935Z,24
2023-01-07T03:41:43.584Z,24
2023-01-07T03:42:46.077Z,23.8
2023-01-07T03:43:48.594Z,23.8
2023-01-07T03:44:51.092Z,23.9
2023-01-07T03:45:53.769Z,23.8
2023-01-07T03:46:56.560Z,23.9
2023-01-07T03:47:59.097Z,23.9
2023-01-07T03:49:01.775Z,23.8
2023-01-07T03:50:04.322Z,24
2023-01-07T03:51:06.639Z,23.8
2023-01-07T03:52:09.128Z,23.9
2023-01-07T03:53:11.382Z,24
2023-01-07T03:54:13.635Z,24
2023-01-07T03:55:15.897Z,24
2023-01-07T03:56:18.138Z,24.1
2023-01-07T03:57:20.207Z,24
2023-01-07T03:58:22.466Z,24
2023-01-07T03:59:25.021Z,23.9
2023-01-07T04:00:26.991Z,23.8
2023-01-07T04:01:29.960Z,23.9
2023-01-07T04:02:33.195Z,23.9
2023-01-07T04:03:35.725Z,23.9
2023-01-07T04:04:38.150Z,24
2023-01-07T04:05:40.774Z,24.1
2023-01-07T04:06:43.298Z,24
2023-01-07T04:07:45.530Z,24.1
2023-01-07T04:08:47.807Z,24
2023-01-07T04:09:49.744Z,23.9
2023-01-07T04:10:52.283Z,23.9
2023-01-07T04:11:54.789Z,23.9
2023-01-07T04:12:57.439Z,23.8
2023-01-07T04:13:59.972Z,23.9
2023-01-07T04:15:02.206Z,23.8
2023-01-07T04:16:04.544Z,23.8
2023-01-07T04:17:07.442Z,23.9
2023-01-07T04:18:09.964Z,23.9
2023-01-07T04:19:12.491Z,23.9
2023-01-07T04:20:15.120Z,23.9
2023-01-07T04:21:17.654Z,23.8
2023-01-07T04:22:20.145Z,23.7
2023-01-07T04:23:22.413Z,23.8
2023-01-07T04:24:24.908Z,23.8
2023-01-07T04:25:27.136Z,23.8
2023-01-07T04:26:29.633Z,23.9
2023-01-07T04:27:32.141Z,23.7
2023-01-07T04:28:34.812Z,23.9
2023-01-07T04:29:37.037Z,23.8
2023-01-07T04:30:39.614Z,23.9
2023-01-07T04:31:42.199Z,23.8
2023-01-07T04:32:45.096Z,23.9
2023-01-07T04:33:47.591Z,23.9
2023-01-07T04:34:49.846Z,23.8
2023-01-07T04:35:52.251Z,23.9
2023-01-07T04:36:54.469Z,23.8
2023-01-07T04:37:56.691Z,23.8
2023-01-07T04:38:59.205Z,23.8
2023-01-07T04:40:01.453Z,23.9
2023-01-07T04:41:03.979Z,23.9
2023-01-07T04:42:06.251Z,23.7
2023-01-07T04:43:08.791Z,23.8
2023-01-07T04:44:11.466Z,23.8
2023-01-07T04:45:13.984Z,23.8
2023-01-07T04:46:16.572Z,23.8
2023-01-07T04:47:19.404Z,23.7
2023-01-07T04:48:22.003Z,23.9
2023-01-07T04:49:24.250Z,23.8
2023-01-07T04:50:26.249Z,23.8
2023-01-07T04:51:28.876Z,23.7
2023-01-07T04:52:31.384Z,23.7
2023-01-07T04:53:33.896Z,23.7
2023-01-07T04:54:36.395Z,23.7
2023-01-07T04:55:38.886Z,23.7
2023-01-07T04:56:41.096Z,23.7
2023-01-07T04:57:43.046Z,23.9
2023-01-07T04:58:45.532Z,23.7
2023-01-07T04:59:48.243Z,23.7
2023-01-07T05:00:50.790Z,23.7
2023-01-07T05:01:53.367Z,23.8
2023-01-07T05:02:56.059Z,23.6
2023-01-07T05:03:59.041Z,23.9
2023-01-07T05:05:01.483Z,23.7
2023-01-07T05:06:04.015Z,23.6
2023-01-07T05:07:06.639Z,23.7
2023-01-07T05:08:08.582Z,23.8
2023-01-07T05:09:11.123Z,23.6
2023-01-07T05:10:13.663Z,23.8
2023-01-07T05:11:16.160Z,23.6
2023-01-07T05:12:18.667Z,23.6
2023-01-07T05:13:20.900Z,23.7
2023-01-07T05:14:23.460Z,23.7
2023-01-07T05:15:26.012Z,23.8
2023-01-07T05:16:28.002Z,23.5
2023-01-07T05:17:30.759Z,23.6
2023-01-07T05:18:33.322Z,23.6
2023-01-07T05:19:36.130Z,23.6
2023-01-07T05:20:38.347Z,23.6
2023-01-07T05:21:40.883Z,23.5
2023-01-07T05:22:43.168Z,23.7
2023-01-07T05:23:45.654Z,23.7
2023-01-07T05:24:47.938Z,23.6
2023-01-07T05:25:50.155Z,23.5
2023-01-07T05:26:52.115Z,23.7
2023-01-07T05:27:54.445Z,23.6
2023-01-07T05:28:56.949Z,23.6
2023-01-07T05:29:59.452Z,23.6
2023-01-07T05:31:02.310Z,23.7
2023-01-07T05:32:05.340Z,23.6
2023-01-07T05:33:07.554Z,23.7
2023-01-07T05:34:10.073Z,23.5
2023-01-07T05:35:12.844Z,23.6
2023-01-07T05:36:15.047Z,23.6
2023-01-07T05:37:17.585Z,23.5
2023-01-07T05:38:20.239Z,23.6
2023-01-07T05:39:22.468Z,23.7
2023-01-07T05:40:24.963Z,23.5
2023-01-07T05:41:27.496Z,23.6
2023-01-07T05:42:30.048Z,23.6
2023-01-07T05:43:32.584Z,23.5
2023-01-07T05:44:35.102Z,23.6
2023-01-07T05:45:37.347Z,23.7
2023-01-07T05:46:39.735Z,23.5
2023-01-07T05:47:42.244Z,23.5
2023-01-07T05:48:44.202Z,23.6
2023-01-07T05:49:46.701Z,23.6
2023-01-07T05:50:49.296Z,23.6
2023-01-07T05:51:51.812Z,23.3
2023-01-07T05:52:54.322Z,23.5
2023-01-07T05:53:56.678Z,23.5
2023-01-07T05:54:58.914Z,23.5
2023-01-07T05:56:01.479Z,23.6
2023-01-07T05:57:04.047Z,23.4
2023-01-07T05:58:06.596Z,23.5
2023-01-07T05:59:09.104Z,23.7
2023-01-07T06:00:11.336Z,23.5
2023-01-07T06:01:13.617Z,23.4
2023-01-07T06:02:16.609Z,23.5
2023-01-07T06:03:19.196Z,23.4
2023-01-07T06:04:22.029Z,23.4
2023-01-07T06:05:24.751Z,23.5
2023-01-07T06:06:27.614Z,23.5
2023-01-07T06:07:30.107Z,23.5
2023-01-07T06:08:32.324Z,23.4
2023-01-07T06:09:34.829Z,23.5
2023-01-07T06:10:37.347Z,23.6
2023-01-07T06:11:39.869Z,23.6
2023-01-07T06:12:42.394Z,23.4
2023-01-07T06:13:44.903Z,23.4
2023-01-07T06:14:47.403Z,23.4
2023-01-07T06:15:49.959Z,23.5
2023-01-07T06:16:52.827Z,23.3
2023-01-07T06:17:54.935Z,23.3
2023-01-07T06:18:57.431Z,23.4
2023-01-07T06:19:59.932Z,23.4
2023-01-07T06:21:02.475Z,23.5
2023-01-07T06:22:05.362Z,23.4
2023-01-07T06:23:07.602Z,23.5
2023-01-07T06:24:09.824Z,23.4
2023-01-07T06:25:12.164Z,23.5
2023-01-07T06:26:14.674Z,23.4
2023-01-07T06:27:17.224Z,23.5
2023-01-07T06:28:19.738Z,23.5
2023-01-07T06:29:21.956Z,23.6
2023-01-07T06:30:24.203Z,23.4
2023-01-07T06:31:26.790Z,23.2
2023-01-07T06:32:29.204Z,23.6
2023-01-07T06:33:33.488Z,23.5
2023-01-07T06:34:35.800Z,23.4
2023-01-07T06:35:38.332Z,23.4
2023-01-07T06:36:40.567Z,23.6
2023-01-07T06:37:43.458Z,23.3
2023-01-07T06:38:45.717Z,23.5
2023-01-07T06:39:48.237Z,23.6
2023-01-07T06:40:50.862Z,23.6
2023-01-07T06:41:53.096Z,23.4
2023-01-07T06:42:55.603Z,23.5
2023-01-07T06:43:57.859Z,23.4
2023-01-07T06:45:01.055Z,23.6
2023-01-07T06:46:03.696Z,23.4
2023-01-07T06:47:06.088Z,23.4
2023-01-07T06:48:08.571Z,23.5
2023-01-07T06:49:10.949Z,23.4
2023-01-07T06:50:13.682Z,23.5
2023-01-07T06:51:15.920Z,23.4
2023-01-07T06:52:18.460Z,23.6
2023-01-07T06:53:21.364Z,23.5
2023-01-07T06:54:23.615Z,23.3
2023-01-07T06:55:26.112Z,23.3
2023-01-07T06:56:28.782Z,23.3
2023-01-07T06:57:31.274Z,23.5
2023-01-07T06:58:33.503Z,23.4
2023-01-07T06:59:36.048Z,23.4
2023-01-07T07:00:38.559Z,23.4
2023-01-07T07:01:40.905Z,23.4
2023-01-07T07:02:49.224Z,23.4
2023-01-07T07:03:52.096Z,23.4
2023-01-07T07:04:54.735Z,23.6
2023-01-07T07:05:56.967Z,23.3
2023-01-07T07:06:59.168Z,23.3
2023-01-07T07:08:01.669Z,23.3
2023-01-07T07:09:04.569Z,23.3
2023-01-07T07:10:07.212Z,23.3
2023-01-07T07:11:09.834Z,23.3
2023-01-07T07:12:12.489Z,23.3
2023-01-07T07:13:14.740Z,23.2
2023-01-07T07:14:17.247Z,23.5
2023-01-07T07:15:19.459Z,23.5
2023-01-07T07:16:22.002Z,23.5
2023-01-07T07:17:24.858Z,23.3
2023-01-07T07:18:27.128Z,23.3
2023-01-07T07:19:29.689Z,23.3
2023-01-07T07:20:32.303Z,23.2
2023-01-07T07:21:34.061Z,23.3
2023-01-07T07:22:36.312Z,23.3
2023-01-07T07:23:38.830Z,23.3
2023-01-07T07:24:41.607Z,23.3
2023-01-07T07:25:44.100Z,23.3
2023-01-07T07:26:46.352Z,23.2
2023-01-07T07:27:49.040Z,23.3
2023-01-07T07:28:51.556Z,23.4
2023-01-07T07:29:54.055Z,23.3
2023-01-07T07:30:56.315Z,23.2
2023-01-07T07:31:58.604Z,23.3
2023-01-07T07:33:01.163Z,23.3
2023-01-07T07:34:03.675Z,23.3
2023-01-07T07:35:06.251Z,23.4
2023-01-07T07:36:08.881Z,23.4
2023-01-07T07:37:11.132Z,23.4
2023-01-07T07:38:13.656Z,23.3
2023-01-07T07:39:15.945Z,23.3
2023-01-07T07:40:18.802Z,23.3
2023-01-07T07:41:21.394Z,23.3
2023-01-07T07:42:25.593Z,23.3
2023-01-07T07:43:28.197Z,23.2
2023-01-07T07:44:30.715Z,23.3
2023-01-07T07:45:32.927Z,23.3
2023-01-07T07:46:35.508Z,23.3
2023-01-07T07:47:38.691Z,23.2
2023-01-07T07:48:41.190Z,23.4
2023-01-07T07:49:43.738Z,23.3
2023-01-07T07:50:46.259Z,23.3
2023-01-07T07:51:48.880Z,23.4
2023-01-07T07:52:51.112Z,23.4
2023-01-07T07:53:53.387Z,23.4
2023-01-07T07:54:55.357Z,23.3
2023-01-07T07:56:00.343Z,23.5
2023-01-07T07:57:03.213Z,23.3
2023-01-07T07:58:05.740Z,23.2
2023-01-07T07:59:08.134Z,23.2
2023-01-07T08:00:10.375Z,23.2
2023-01-07T08:01:12.981Z,23.4
2023-01-07T08:02:15.980Z,23.4
2023-01-07T08:03:18.841Z,23.4
2023-01-07T08:04:21.163Z,23.3
2023-01-07T08:05:23.675Z,23.4
2023-01-07T08:06:26.279Z,23.4
2023-01-07T08:07:31.959Z,23.3
2023-01-07T08:08:33.970Z,23.3
2023-01-07T08:09:36.220Z,23.4
2023-01-07T08:10:38.730Z,23.5
2023-01-07T08:11:41.281Z,23.4
2023-01-07T08:12:44.201Z,23.4
2023-01-07T08:13:46.706Z,23.1
2023-01-07T08:14:49.099Z,23.3
2023-01-07T08:15:51.711Z,23.2
2023-01-07T08:16:54.036Z,23.3
2023-01-07T08:17:56.574Z,23.3
2023-01-07T08:18:59.069Z,23.3
2023-01-07T08:20:01.695Z,23.4
2023-01-07T08:21:04.228Z,23.4
2023-01-07T08:22:06.742Z,23.3
2023-01-07T08:23:09.398Z,23.3
2023-01-07T08:24:11.355Z,23.2
2023-01-07T08:25:13.626Z,23.2
2023-01-07T08:26:16.173Z,23.2
2023-01-07T08:27:18.175Z,23.4
2023-01-07T08:28:20.768Z,23.3
2023-01-07T08:29:23.304Z,23.5
2023-01-07T08:30:25.665Z,23.4
2023-01-07T08:31:28.167Z,23.4
2023-01-07T08:32:31.080Z,23.3
2023-01-07T08:33:33.606Z,23.4
2023-01-07T08:34:36.123Z,23.3
2023-01-07T08:35:38.372Z,23.4
2023-01-07T08:36:40.415Z,23.3
2023-01-07T08:37:42.678Z,23.5
2023-01-07T08:38:44.729Z,23.4
2023-01-07T08:39:46.955Z,23.3
2023-01-07T08:40:48.921Z,23.3
2023-01-07T08:41:51.164Z,23.4
2023-01-07T08:42:53.686Z,23.2
2023-01-07T08:43:56.334Z,23.3
2023-01-07T08:44:58.604Z,23.3
2023-01-07T08:46:01.395Z,23.3
2023-01-07T08:47:03.328Z,23.3
2023-01-07T08:48:05.849Z,23.5
2023-01-07T08:49:08.437Z,23.2
2023-01-07T08:50:10.967Z,23.3
2023-01-07T08:51:13.249Z,23.4
2023-01-07T08:52:15.771Z,23.4
2023-01-07T08:53:18.276Z,23.3
2023-01-07T08:54:20.902Z,23.4
2023-01-07T08:55:23.435Z,23.2
2023-01-07T08:56:25.956Z,23.3
2023-01-07T08:57:28.221Z,23.4
2023-01-07T08:58:30.732Z,23.4
2023-01-07T08:59:33.575Z,23.3
2023-01-07T09:00:35.841Z,23.4
2023-01-07T09:01:38.942Z,23.5
2023-01-07T09:02:42.576Z,23.3
2023-01-07T09:03:45.086Z,23.3
2023-01-07T09:04:47.039Z,23.3
2023-01-07T09:05:49.572Z,23.3
2023-01-07T09:06:51.556Z,23.2
2023-01-07T09:07:53.784Z,23.4
2023-01-07T09:08:55.516Z,23.4
2023-01-07T09:09:58.147Z,23.2
2023-01-07T09:11:00.384Z,23.3
2023-01-07T09:12:02.928Z,23.3
2023-01-07T09:13:04.903Z,23.2
2023-01-07T09:14:07.226Z,23.4
2023-01-07T09:15:10.127Z,23.3
2023-01-07T09:16:12.696Z,23.4
2023-01-07T09:17:15.551Z,23.3
2023-01-07T09:18:18.053Z,23.4
2023-01-07T09:19:20.583Z,23.4
2023-01-07T09:20:22.840Z,23.3
2023-01-07T09:21:25.447Z,23.3
2023-01-07T09:22:27.402Z,23.1
2023-01-07T09:23:29.344Z,23.2
2023-01-07T09:24:31.583Z,23.3
2023-01-07T09:25:33.948Z,23.4
2023-01-07T09:26:36.471Z,23.3
2023-01-07T09:27:38.995Z,23.2
2023-01-07T09:28:41.546Z,23.3
2023-01-07T09:29:43.785Z,23.3
2023-01-07T09:30:46.667Z,23.3
2023-01-07T09:31:49.347Z,23.3
2023-01-07T09:32:52.198Z,23.3
2023-01-07T09:33:54.522Z,23.3
2023-01-07T09:34:57.037Z,23.4
2023-01-07T09:35:59.564Z,23.4
2023-01-07T09:37:02.058Z,23.4
2023-01-07T09:38:04.329Z,23.4
2023-01-07T09:39:06.001Z,23.3
2023-01-07T09:40:08.511Z,23.4
2023-01-07T09:41:10.863Z,23.3
2023-01-07T09:42:13.377Z,23.3
2023-01-07T09:43:15.891Z,23.3
2023-01-07T09:44:18.115Z,23.4
2023-01-07T09:45:20.630Z,23.5
2023-01-07T09:46:23.192Z,23.4
2023-01-07T09:47:25.484Z,23.4
2023-01-07T09:48:28.138Z,23.2
2023-01-07T09:49:30.639Z,23.3
2023-01-07T09:50:33.137Z,23.3
2023-01-07T09:51:35.684Z,23.2
2023-01-07T09:52:38.220Z,23.3
2023-01-07T09:53:40.476Z,23.6
2023-01-07T09:54:43.009Z,23.3
2023-01-07T09:56:10.303Z,23.2
2023-01-07T09:56:50.493Z,23.3
2023-01-07T09:57:53.119Z,23.3
2023-01-07T09:58:55.644Z,23.4
2023-01-07T09:59:58.154Z,23.3
2023-01-07T10:01:00.748Z,23.4
2023-01-07T10:02:03.936Z,23.4
2023-01-07T10:03:06.453Z,23.2
2023-01-07T10:04:09.169Z,23.4
2023-01-07T10:05:11.978Z,23.4
2023-01-07T10:06:14.524Z,23.3
2023-01-07T10:07:16.749Z,23.3
2023-01-07T10:08:29.548Z,23.4
2023-01-07T10:09:24.249Z,23.4
2023-01-07T10:10:26.797Z,23.5
2023-01-07T10:11:29.299Z,23.4
2023-01-07T10:12:31.822Z,23.4
2023-01-07T10:13:34.464Z,23.3
2023-01-07T10:14:36.965Z,23.3
2023-01-07T10:15:39.180Z,23.3
2023-01-07T10:16:41.880Z,23.3
2023-01-07T10:17:45.515Z,23.3
2023-01-07T10:18:47.772Z,23.2
2023-01-07T10:19:50.319Z,23.3
2023-01-07T10:20:52.819Z,23.3
2023-01-07T10:21:55.067Z,23.3
2023-01-07T10:22:57.321Z,23.3
2023-01-07T10:23:59.568Z,23.3
2023-01-07T10:25:01.867Z,23.1
2023-01-07T10:26:04.454Z,23.3
2023-01-07T10:27:06.686Z,23.4
2023-01-07T10:28:09.234Z,23.3
2023-01-07T10:29:11.660Z,23.4
2023-01-07T10:30:13.881Z,23.4
2023-01-07T10:31:16.476Z,23.3
2023-01-07T10:32:19.315Z,23.2
2023-01-07T10:33:22.208Z,23.4
2023-01-07T10:34:24.725Z,23.3
2023-01-07T10:35:27.351Z,23.3
2023-01-07T10:36:29.860Z,23.2
2023-01-07T10:37:32.367Z,23.3
2023-01-07T10:38:34.871Z,23.3
2023-01-07T10:39:37.407Z,23.3
2023-01-07T10:40:39.941Z,23.5
2023-01-07T10:41:42.465Z,23.1
2023-01-07T10:42:44.708Z,23.3
2023-01-07T10:43:47.280Z,23.3
2023-01-07T10:44:49.638Z,23.3
2023-01-07T10:45:52.284Z,23.3
2023-01-07T10:46:55.277Z,23.2
2023-01-07T10:47:57.790Z,23.3
2023-01-07T10:49:00.327Z,23.2
2023-01-07T10:50:02.866Z,23.3
2023-01-07T10:51:04.698Z,23.2
2023-01-07T10:52:06.952Z,23.3
2023-01-07T10:53:08.888Z,23.2
2023-01-07T10:54:11.159Z,23.3
2023-01-07T10:55:13.442Z,23.3
2023-01-07T10:56:15.986Z,23.3
2023-01-07T10:57:18.557Z,23.5
2023-01-07T10:58:20.814Z,23.3
2023-01-07T10:59:23.359Z,23.3
2023-01-07T11:00:26.002Z,23.3
2023-01-07T11:01:28.639Z,23.3
2023-01-07T11:02:31.873Z,23.2
2023-01-07T11:03:34.636Z,23.3
2023-01-07T11:04:36.856Z,23.2
2023-01-07T11:05:39.118Z,23.3
2023-01-07T11:06:41.805Z,23.1
2023-01-07T11:07:44.349Z,23.2
2023-01-07T11:08:46.940Z,23.1
2023-01-07T11:09:49.181Z,23.2
2023-01-07T11:10:51.432Z,23.4
2023-01-07T11:11:53.969Z,23.3
2023-01-07T11:12:55.897Z,23.2
2023-01-07T11:13:58.219Z,23.2
2023-01-07T11:15:00.176Z,23.2
2023-01-07T11:16:02.966Z,23.3
2023-01-07T11:17:05.296Z,23.3
2023-01-07T11:18:07.587Z,23.4
2023-01-07T11:19:12.622Z,23.3
2023-01-07T11:20:15.611Z,23.4
2023-01-07T11:21:42.177Z,23.2
2023-01-07T11:22:23.246Z,23.4
2023-01-07T11:23:25.773Z,23.4
2023-01-07T11:24:27.984Z,23.3
2023-01-07T11:25:30.217Z,23.4
2023-01-07T11:26:32.740Z,23.3
2023-01-07T11:27:35.257Z,23.3
2023-01-07T11:28:37.786Z,23.3
2023-01-07T11:29:40.047Z,23.5
2023-01-07T11:30:42.585Z,23.4
2023-01-07T11:31:45.336Z,23.3
2023-01-07T11:32:47.924Z,23.4
2023-01-07T11:34:01.223Z,23.4
2023-01-07T11:34:55.405Z,23.3
2023-01-07T11:35:58.441Z,23.2
2023-01-07T11:37:00.938Z,23.4
2023-01-07T11:38:03.313Z,23.4
2023-01-07T11:39:05.835Z,23.3
2023-01-07T11:40:08.045Z,23.3
2023-01-07T11:41:10.571Z,23.5
2023-01-07T11:42:12.819Z,23.4
2023-01-07T11:43:15.349Z,23.3
2023-01-07T11:44:17.891Z,23.4
2023-01-07T11:45:20.453Z,23.2
2023-01-07T11:46:25.234Z,23.2
2023-01-07T11:47:28.000Z,23.3
2023-01-07T11:48:30.627Z,23.3
2023-01-07T11:49:32.859Z,23.2
2023-01-07T11:50:35.089Z,23.3
2023-01-07T11:51:38.071Z,23.3
2023-01-07T11:52:40.607Z,23.2
2023-01-07T11:53:42.675Z,23.4
2023-01-07T11:54:45.199Z,23.3
2023-01-07T11:55:47.699Z,23.4
2023-01-07T11:56:49.959Z,23.3
2023-01-07T11:58:27.825Z,23.3
2023-01-07T11:59:01.060Z,23.3
2023-01-07T12:00:03.346Z,23.3
2023-01-07T12:01:06.025Z,23.2
2023-01-07T12:02:08.730Z,23.2
2023-01-07T12:03:11.574Z,23.3
2023-01-07T12:04:14.529Z,23.3
2023-01-07T12:05:16.485Z,23.3
2023-01-07T12:06:19.002Z,23.4
2023-01-07T12:07:21.659Z,23.3
2023-01-07T12:08:24.188Z,23.2
2023-01-07T12:09:26.885Z,23.4
2023-01-07T12:10:28.826Z,23.2
2023-01-07T12:11:31.351Z,23.3
2023-01-07T12:12:33.881Z,23.3
2023-01-07T12:13:36.517Z,23.3
2023-01-07T12:14:39.082Z,23.4
2023-01-07T12:15:41.328Z,23.4
2023-01-07T12:16:44.093Z,23.1
2023-01-07T12:17:46.923Z,23.3
2023-01-07T12:18:48.873Z,23.3
2023-01-07T12:19:51.563Z,23.2
2023-01-07T12:20:54.062Z,23.3
2023-01-07T12:21:56.294Z,23.3
2023-01-07T12:22:59.303Z,23.3
2023-01-07T12:24:01.612Z,23.5
2023-01-07T12:25:03.961Z,23.3
2023-01-07T12:26:06.174Z,23.1
2023-01-07T12:27:08.803Z,23.4
2023-01-07T12:28:10.797Z,23.5
2023-01-07T12:29:13.061Z,23.3
2023-01-07T12:30:15.610Z,23.3
2023-01-07T12:31:17.981Z,23.3
2023-01-07T12:32:20.346Z,23.3
2023-01-07T12:33:22.871Z,23.3
2023-01-07T12:34:24.806Z,23.4
2023-01-07T12:35:27.407Z,23.4
2023-01-07T12:36:29.930Z,23.2
2023-01-07T12:37:32.445Z,23.3
2023-01-07T12:38:39.366Z,23.3
2023-01-07T12:39:41.895Z,23.2
2023-01-07T12:40:44.248Z,23.3
2023-01-07T12:41:46.942Z,23.3
2023-01-07T12:42:48.945Z,23.4
2023-01-07T12:43:51.540Z,23.2
2023-01-07T12:44:58.417Z,23.3
2023-01-07T12:46:00.523Z,23.3
2023-01-07T12:47:29.705Z,23.3
2023-01-07T12:48:08.381Z,23.4
2023-01-07T12:49:10.886Z,23.2
2023-01-07T12:50:13.538Z,23.3
2023-01-07T12:51:16.227Z,23.3
2023-01-07T12:52:18.744Z,23.4
2023-01-07T12:53:21.242Z,23.3
2023-01-07T12:54:24.149Z,23.2
2023-01-07T12:55:26.654Z,23.3
2023-01-07T12:56:29.030Z,23.4
2023-01-07T12:57:31.581Z,23.3
2023-01-07T12:58:33.856Z,23.4
2023-01-07T12:59:45.324Z,23.3
2023-01-07T13:00:41.357Z,23.3
2023-01-07T13:01:44.015Z,23.2
2023-01-07T13:02:47.240Z,23.2
2023-01-07T13:03:49.756Z,23.2
2023-01-07T13:04:51.535Z,23.2
2023-01-07T13:05:54.066Z,23.5
2023-01-07T13:06:56.451Z,23.3
2023-01-07T13:07:58.956Z,23.4
2023-01-07T13:09:05.873Z,23.3
2023-01-07T13:10:08.403Z,23.4
2023-01-07T13:11:10.907Z,23.3
2023-01-07T13:12:40.398Z,23.3
2023-01-07T13:13:18.383Z,23.3
2023-01-07T13:14:20.593Z,23.4
2023-01-07T13:15:23.092Z,23.5
2023-01-07T13:16:25.732Z,23.3
2023-01-07T13:17:28.601Z,23.4
2023-01-07T13:18:31.151Z,23.4
2023-01-07T13:19:33.657Z,23.3
2023-01-07T13:20:35.889Z,23.3
2023-01-07T13:21:39.092Z,23.5
2023-01-07T13:22:41.730Z,23.4
2023-01-07T13:23:44.270Z,23.2
2023-01-07T13:24:54.409Z,23.4
2023-01-07T13:25:51.801Z,23.4
2023-01-07T13:26:54.684Z,23.4
2023-01-07T13:27:57.300Z,23.3
2023-01-07T13:28:59.855Z,23.4
2023-01-07T13:30:02.381Z,23.4
2023-01-07T13:31:04.682Z,23.4
2023-01-07T13:32:07.210Z,23.5
2023-01-07T13:33:09.421Z,23.3
2023-01-07T13:34:11.677Z,23.3
2023-01-07T13:35:13.898Z,23.3
2023-01-07T13:36:16.163Z,23.3
2023-01-07T13:37:18.693Z,23.4
2023-01-07T13:38:21.326Z,23.3
2023-01-07T13:39:23.560Z,23.3
2023-01-07T13:40:26.153Z,23.3
2023-01-07T13:41:28.395Z,23.5
2023-01-07T13:42:31.275Z,23.2
2023-01-07T13:43:33.928Z,23.4
2023-01-07T13:44:36.159Z,23.3
2023-01-07T13:45:38.711Z,23.5
2023-01-07T13:46:41.321Z,23.5
2023-01-07T13:47:44.030Z,23.4
2023-01-07T13:48:46.300Z,23.3
2023-01-07T13:49:56.621Z,23.3
2023-01-07T13:50:53.828Z,23.4
2023-01-07T13:51:56.343Z,23.3
2023-01-07T13:52:58.911Z,23.3
2023-01-07T13:54:00.764Z,23.4
2023-01-07T13:55:03.229Z,23.4